Time;durP1;ratioP1;P1;durP2;ratioP2;P2;SDS_P1;SDS_P2;PMS_P1;PMS_P2;Temp;Humidity;BMP_temperature;BMP_pressure;BME280_temperature;BME280_humidity;BME280_pressure;Samples;Min_cycle;Max_cycle;Signal;HPM_P1;HPM_P2
2023/03/04 00:02:23;;;;;;;38.13;15.90;;;-1.10;1.00;;;0.96;100.00;96049.00;4962016;28;20228;-69
2023/03/04 00:04:50;;;;;;;34.83;15.67;;;-1.10;1.00;;;0.95;100.00;96044.78;4965128;28;20219;-69
2023/03/04 00:07:17;;;;;;;35.03;15.80;;;-1.20;1.00;;;0.95;100.00;96039.53;4960148;28;20291;-69
2023/03/04 00:09:45;;;;;;;35.10;16.37;;;-1.20;1.00;;;0.96;100.00;96042.94;4962818;28;20222;-70
2023/03/04 00:12:13;;;;;;;35.27;16.63;;;-1.20;1.00;;;0.98;100.00;96046.22;4959448;28;20236;-69
2023/03/04 00:14:40;;;;;;;39.33;16.57;;;-1.20;1.00;;;0.94;100.00;96045.78;4964955;28;20632;-69
2023/03/04 00:17:07;;;;;;;36.63;15.87;;;-1.20;1.00;;;0.89;100.00;96050.78;4963273;28;20255;-70
2023/03/04 00:19:36;;;;;;;32.23;15.60;;;-1.20;1.00;;;0.89;100.00;96042.91;4966760;28;20216;-69
2023/03/04 00:22:04;;;;;;;38.07;16.43;;;-1.20;1.00;;;0.86;100.00;96048.53;4968838;28;20208;-69
2023/03/04 00:24:31;;;;;;;29.93;15.00;;;-1.20;1.00;;;0.87;100.00;96047.53;4966779;28;20651;-70
2023/03/04 00:26:58;;;;;;;32.90;15.70;;;-1.20;1.00;;;0.75;100.00;96041.16;4961094;28;20683;-69
2023/03/04 00:29:25;;;;;;;32.60;14.87;;;-1.30;1.00;;;0.79;100.00;96045.03;4969239;28;20277;-70
2023/03/04 00:31:52;;;;;;;37.20;15.87;;;-1.30;1.00;;;0.80;100.00;96048.47;4967252;28;20246;-69
2023/03/04 00:34:19;;;;;;;33.87;15.70;;;-1.30;1.00;;;0.70;100.00;96043.53;4964654;28;20205;-70
2023/03/04 00:36:47;;;;;;;36.03;15.97;;;-1.40;1.00;;;0.72;100.00;96044.16;4965335;28;20208;-69
2023/03/04 00:39:14;;;;;;;32.83;16.47;;;-1.40;1.00;;;0.71;100.00;96039.13;4969785;28;20208;-69
2023/03/04 00:41:41;;;;;;;36.33;16.27;;;-1.50;1.00;;;0.65;100.00;96039.84;4959213;28;20239;-70
2023/03/04 00:44:08;;;;;;;35.33;16.67;;;-1.50;1.00;;;0.55;100.00;96048.03;4966258;28;20225;-70
2023/03/04 00:46:35;;;;;;;35.73;16.90;;;-1.50;1.00;;;0.47;100.00;96036.84;4963218;28;20209;-69
2023/03/04 00:49:02;;;;;;;34.77;18.00;;;-1.60;1.00;;;0.41;100.00;96041.03;4968288;28;21017;-69
2023/03/04 00:51:29;;;;;;;34.97;15.87;;;-1.60;1.00;;;0.24;100.00;96042.25;4965483;28;20268;-69
2023/03/04 00:53:57;;;;;;;36.93;16.93;;;-1.70;1.00;;;0.43;100.00;96036.41;4969129;28;20216;-70
2023/03/04 00:56:24;;;;;;;38.23;16.47;;;-1.60;1.00;;;0.32;100.00;96031.63;4960216;28;20219;-69
2023/03/04 00:58:50;;;;;;;35.33;17.17;;;-1.70;1.00;;;0.35;100.00;96033.06;4967618;28;20212;-70
2023/03/04 01:01:17;;;;;;;35.87;16.87;;;-1.70;1.00;;;0.32;100.00;96039.50;4961986;28;20235;-70
2023/03/04 01:03:44;;;;;;;32.90;15.70;;;-1.70;1.00;;;0.28;100.00;96033.03;4968495;28;20662;-69
2023/03/04 01:06:11;;;;;;;37.93;15.97;;;-1.70;1.00;;;0.34;100.00;96028.84;4966926;28;20280;-69
2023/03/04 01:08:38;;;;;;;33.57;15.27;;;-1.80;1.00;;;0.36;100.00;96026.84;4969364;28;20209;-69
2023/03/04 01:11:07;;;;;;;36.57;15.67;;;-1.80;1.00;;;0.28;100.00;96033.03;4963307;28;20705;-69
2023/03/04 01:13:34;;;;;;;33.80;16.43;;;-1.80;1.00;;;0.34;100.00;96029.66;4965777;28;21013;-69
2023/03/04 01:16:02;;;;;;;37.93;15.43;;;-1.80;1.00;;;0.30;100.00;96033.66;4967666;28;20263;-70
2023/03/04 01:18:29;;;;;;;36.93;16.83;;;-1.80;1.00;;;0.24;100.00;96030.94;4967442;28;20216;-70
2023/03/04 01:20:57;;;;;;;36.53;16.10;;;-1.80;1.00;;;0.21;100.00;96034.75;4966672;28;20204;-69
2023/03/04 01:23:24;;;;;;;39.07;17.23;;;-1.80;1.00;;;0.16;100.00;96028.47;4968153;28;20228;-69
2023/03/04 01:25:50;;;;;;;35.40;16.47;;;-1.90;1.00;;;0.14;100.00;96031.25;4963584;28;20259;-69
2023/03/04 01:28:18;;;;;;;38.23;16.77;;;-1.90;1.00;;;0.14;100.00;96027.81;4966839;28;20216;-69
2023/03/04 01:30:45;;;;;;;33.63;15.90;;;-1.90;1.00;;;0.13;100.00;96023.56;4962545;28;20237;-69
2023/03/04 01:33:12;;;;;;;41.20;16.77;;;-1.90;1.00;;;0.20;100.00;96024.44;4968225;28;20263;-69
2023/03/04 01:35:39;;;;;;;41.23;17.30;;;-1.90;1.00;;;0.21;100.00;96026.88;4962910;28;20221;-69
2023/03/04 01:38:06;;;;;;;35.90;16.73;;;-1.90;1.00;;;0.46;100.00;96019.50;4963901;28;20212;-69
2023/03/04 01:40:33;;;;;;;37.77;17.93;;;-1.90;1.00;;;0.32;100.00;96025.59;4964140;28;20291;-69
2023/03/04 01:43:00;;;;;;;38.13;17.80;;;-1.90;1.00;;;0.39;100.00;96018.59;4967339;28;20278;-70
2023/03/04 01:45:28;;;;;;;40.83;17.63;;;-2.00;1.00;;;0.50;100.00;96020.72;4968040;28;20272;-69
2023/03/04 01:47:55;;;;;;;37.37;16.93;;;-1.90;1.00;;;0.45;100.00;96018.66;4969719;28;20234;-70
2023/03/04 01:50:28;;;;;;;40.37;17.53;;;-1.90;1.00;;;0.51;100.00;96020.53;4963927;28;20729;-69
2023/03/04 01:52:55;;;;;;;38.17;18.43;;;-2.00;1.00;;;0.44;100.00;96016.22;4968331;28;20208;-70
2023/03/04 01:55:23;;;;;;;41.90;17.87;;;-2.00;1.00;;;0.58;100.00;96012.75;4964638;28;20721;-69
2023/03/04 01:57:52;;;;;;;37.10;17.30;;;-2.00;1.00;;;0.44;100.00;96019.69;4970213;28;20746;-70
2023/03/04 02:00:31;;;;;;;39.93;17.70;;;-2.00;1.00;;;0.03;100.00;96021.25;4964277;28;20235;-69
2023/03/04 02:03:02;;;;;;;37.70;17.37;;;-2.10;1.00;;;-0.16;100.00;96018.38;4966080;28;20318;-70
2023/03/04 02:05:30;;;;;;;43.63;17.67;;;-2.20;1.00;;;-0.31;100.00;96017.59;4965360;28;20225;-70
2023/03/04 02:07:58;;;;;;;36.63;17.63;;;-2.20;1.00;;;-0.45;100.00;96011.38;4964440;28;20217;-70
2023/03/04 02:10:25;;;;;;;39.30;16.50;;;-2.30;1.00;;;-0.41;100.00;96010.03;4964755;28;20216;-69
2023/03/04 02:12:53;;;;;;;34.30;15.90;;;-2.40;1.00;;;-0.32;100.00;96011.56;4967189;28;20204;-70
2023/03/04 02:15:20;;;;;;;38.00;16.77;;;-2.40;1.00;;;-0.32;100.00;96014.16;4959792;28;20220;-69
2023/03/04 02:17:48;;;;;;;33.33;16.53;;;-2.40;1.00;;;-0.08;100.00;96008.63;4967251;28;20212;-70
2023/03/04 02:20:35;;;;;;;36.17;16.70;;;-2.40;1.00;;;-0.05;100.00;96000.38;4965567;28;20603;-69
2023/03/04 02:23:11;;;;;;;37.13;15.90;;;-2.40;1.00;;;0.09;100.00;96002.16;4971449;28;20764;-69
2023/03/04 02:25:46;;;;;;;40.10;17.57;;;-2.40;1.00;;;0.19;100.00;96005.28;4964542;28;20256;-69
2023/03/04 02:28:14;;;;;;;34.27;16.70;;;-2.40;1.00;;;0.28;100.00;96004.19;4970749;28;20208;-69
2023/03/04 02:30:41;;;;;;;36.90;16.70;;;-2.40;1.00;;;0.28;100.00;95995.50;4965769;28;20996;-69
2023/03/04 02:33:15;;;;;;;34.83;15.80;;;-2.40;1.00;;;0.38;100.00;95994.19;4969035;28;20624;-70
2023/03/04 02:35:42;;;;;;;35.30;15.57;;;-2.40;1.00;;;0.42;100.00;95992.78;4964873;28;20216;-69
2023/03/04 02:38:10;;;;;;;36.17;15.70;;;-2.40;1.00;;;0.44;100.00;96003.94;4960302;28;20638;-69
2023/03/04 02:40:39;;;;;;;35.97;15.10;;;-2.40;1.00;;;0.45;100.00;95989.00;4965519;28;20208;-69
2023/03/04 02:43:08;;;;;;;38.03;16.23;;;-2.40;1.00;;;0.49;100.00;95998.13;4965746;28;20228;-69
2023/03/04 02:45:41;;;;;;;37.83;15.83;;;-2.40;1.00;;;0.47;100.00;95995.66;4963986;28;20220;-70
2023/03/04 02:48:09;;;;;;;32.40;16.07;;;-2.40;1.00;;;0.45;100.00;95995.06;4964723;28;20209;-69
2023/03/04 02:50:41;;;;;;;31.63;14.97;;;-2.50;1.00;;;0.41;100.00;95995.63;4963343;28;20216;-70
2023/03/04 02:53:08;;;;;;;33.63;15.57;;;-2.50;1.00;;;0.20;100.00;95996.41;4965975;28;20902;-69
2023/03/04 02:55:35;;;;;;;37.70;16.90;;;-2.50;1.00;;;0.05;100.00;95998.28;4965847;28;20216;-69
2023/03/04 02:58:02;;;;;;;35.40;15.90;;;-2.50;1.00;;;0.14;100.00;95993.72;4969885;28;20209;-70
2023/03/04 03:00:29;;;;;;;37.13;16.00;;;-2.60;1.00;;;0.21;100.00;95998.03;4964224;28;20291;-70
2023/03/04 03:02:58;;;;;;;33.43;15.00;;;-2.60;1.00;;;0.10;100.00;96000.31;4969586;28;20691;-70
2023/03/04 03:05:27;;;;;;;33.53;16.40;;;-2.60;1.00;;;0.15;100.00;95998.78;4966211;28;20216;-69
2023/03/04 03:07:54;;;;;;;39.93;15.73;;;-2.60;1.00;;;0.14;100.00;95998.97;4966118;28;20674;-70
2023/03/04 03:10:21;;;;;;;34.80;15.00;;;-2.70;1.00;;;0.02;100.00;95998.63;4966564;28;20208;-69
2023/03/04 03:12:48;;;;;;;37.03;15.50;;;-2.70;1.00;;;0.19;100.00;96005.28;4968039;28;20239;-69
2023/03/04 03:15:15;;;;;;;33.70;15.67;;;-2.70;1.00;;;0.19;100.00;95999.22;4965076;28;20282;-69
2023/03/04 03:17:42;;;;;;;32.73;15.87;;;-2.70;1.00;;;0.07;100.00;96001.50;4965585;28;20212;-70
2023/03/04 03:20:13;;;;;;;32.73;15.13;;;-2.70;1.00;;;0.04;100.00;95996.66;4964516;28;20667;-69
2023/03/04 03:22:41;;;;;;;36.53;15.23;;;-2.70;1.00;;;-0.06;100.00;95997.94;4964578;28;20224;-69
2023/03/04 03:25:10;;;;;;;35.57;14.97;;;-2.80;1.00;;;0.00;100.00;96005.09;4964615;28;20236;-69
2023/03/04 03:27:36;;;;;;;36.03;15.33;;;-2.80;1.00;;;-0.03;100.00;95998.41;4967457;28;20204;-69
2023/03/04 03:30:05;;;;;;;34.07;14.13;;;-2.80;1.00;;;-0.06;100.00;95996.13;4967153;28;20249;-70
2023/03/04 03:32:32;;;;;;;33.60;14.17;;;-2.80;1.00;;;0.04;100.00;96001.91;4968523;28;20208;-69
2023/03/04 03:34:59;;;;;;;36.23;15.60;;;-2.80;1.00;;;0.04;100.00;95993.22;4962120;28;20253;-69
2023/03/04 03:37:28;;;;;;;35.90;15.60;;;-2.70;1.00;;;0.19;100.00;95994.81;4962554;28;20216;-69
2023/03/04 03:39:54;;;;;;;35.73;15.77;;;-2.70;1.00;;;0.14;100.00;95998.97;4962976;28;20668;-69
2023/03/04 03:42:21;;;;;;;35.10;16.17;;;-2.70;1.00;;;0.09;100.00;95996.09;4966883;28;20208;-69
2023/03/04 03:44:49;;;;;;;36.40;16.73;;;-2.70;1.00;;;0.00;100.00;96003.25;4967088;28;20232;-69
2023/03/04 03:47:15;;;;;;;32.83;15.33;;;-2.80;1.00;;;0.01;100.00;96002.25;4965057;28;20224;-69
2023/03/04 03:49:42;;;;;;;37.87;16.10;;;-2.80;1.00;;;0.03;100.00;95996.84;4966541;28;20213;-69
2023/03/04 03:52:09;;;;;;;36.03;15.43;;;-2.80;1.00;;;-0.04;100.00;95995.97;4965991;28;20212;-69
2023/03/04 03:54:37;;;;;;;36.13;15.07;;;-2.80;1.00;;;-0.12;100.00;95989.03;4960583;28;20302;-69
2023/03/04 03:57:04;;;;;;;31.10;13.97;;;-2.90;1.00;;;0.04;100.00;95994.03;4967447;28;20216;-69
2023/03/04 03:59:30;;;;;;;32.00;15.10;;;-2.90;1.00;;;-0.07;100.00;95991.91;4969138;28;20220;-70
2023/03/04 04:01:57;;;;;;;35.87;16.43;;;-2.90;1.00;;;-0.19;100.00;95993.34;4961994;28;20244;-69
2023/03/04 04:04:25;;;;;;;29.70;14.73;;;-2.90;1.00;;;-0.16;100.00;95992.16;4967641;28;20232;-69
2023/03/04 04:06:51;;;;;;;30.53;13.47;;;-2.90;1.00;;;-0.03;100.00;95990.53;4966050;28;20326;-69
2023/03/04 04:09:18;;;;;;;28.27;14.97;;;-2.90;1.00;;;0.09;100.00;95996.91;4969893;28;22221;-69
2023/03/04 04:11:46;;;;;;;32.90;14.53;;;-2.90;1.00;;;0.08;100.00;95999.72;4967246;28;20732;-70
2023/03/04 04:14:13;;;;;;;32.90;15.27;;;-2.90;1.00;;;-0.08;100.00;95990.28;4969072;28;20797;-69
2023/03/04 04:16:40;;;;;;;31.73;14.50;;;-2.90;1.00;;;-0.03;100.00;95989.72;4964548;28;20257;-69
2023/03/04 04:19:08;;;;;;;30.53;14.57;;;-2.90;1.00;;;-0.12;100.00;95993.44;4972894;28;20220;-69
2023/03/04 04:21:34;;;;;;;28.77;13.90;;;-2.90;1.00;;;-0.12;100.00;95998.69;4967719;28;20706;-70
2023/03/04 04:24:01;;;;;;;29.53;13.73;;;-3.00;1.00;;;-0.09;100.00;95998.31;4970857;28;20962;-69
2023/03/04 04:26:28;;;;;;;32.77;13.87;;;-3.00;1.00;;;-0.33;100.00;96003.88;4967116;28;20217;-69
2023/03/04 04:28:56;;;;;;;32.37;13.57;;;-3.00;1.00;;;-0.37;100.00;95997.38;4963940;28;20733;-70
2023/03/04 04:31:23;;;;;;;33.83;14.50;;;-3.00;1.00;;;-0.31;100.00;95996.63;4965069;28;20212;-69
2023/03/04 04:33:49;;;;;;;26.63;13.23;;;-3.00;1.00;;;-0.28;100.00;95997.09;4969118;28;20209;-69
2023/03/04 04:36:17;;;;;;;28.77;12.87;;;-3.10;1.00;;;-0.29;100.00;96000.69;4964645;28;20212;-69
2023/03/04 04:38:44;;;;;;;26.43;12.63;;;-3.10;1.00;;;-0.17;100.00;95995.00;4965067;28;20212;-69
2023/03/04 04:41:20;;;;;;;26.10;13.17;;;-3.00;1.00;;;-0.22;100.00;95992.13;4965558;28;20212;-69
2023/03/04 04:43:47;;;;;;;24.80;12.37;;;-3.00;1.00;;;-0.14;100.00;95987.59;4970847;28;20286;-69
2023/03/04 04:46:17;;;;;;;29.17;13.47;;;-3.00;1.00;;;-0.56;100.00;95997.91;4969465;28;20477;-69
2023/03/04 04:48:44;;;;;;;27.80;12.97;;;-3.00;1.00;;;-1.01;100.00;95985.81;4968511;28;20208;-69
2023/03/04 04:51:11;;;;;;;30.07;13.33;;;-3.00;1.00;;;-1.07;100.00;95989.16;4963449;28;20678;-69
2023/03/04 04:53:38;;;;;;;26.13;12.50;;;-3.00;1.00;;;-1.10;100.00;95989.50;4971737;28;20287;-69
2023/03/04 04:56:11;;;;;;;26.13;13.13;;;-3.00;1.00;;;-1.17;100.00;95989.59;4966343;28;20275;-69
2023/03/04 04:58:38;;;;;;;25.87;12.47;;;-3.10;1.00;;;-1.21;100.00;95995.16;4969147;28;20622;-69
2023/03/04 05:01:06;;;;;;;29.47;13.47;;;-3.10;1.00;;;-1.23;100.00;95986.69;4961658;28;20693;-69
2023/03/04 05:03:36;;;;;;;25.40;12.27;;;-3.10;1.00;;;-1.20;100.00;95998.59;4971121;28;20228;-70
2023/03/04 05:06:04;;;;;;;27.23;11.77;;;-3.20;1.00;;;-1.23;100.00;96000.78;4964804;28;20217;-69
2023/03/04 05:08:31;;;;;;;23.87;11.50;;;-3.20;1.00;;;-1.21;100.00;95997.00;4969606;28;20220;-69
2023/03/04 05:10:58;;;;;;;25.73;11.87;;;-3.20;1.00;;;-1.43;100.00;95989.97;4965713;28;20659;-69
2023/03/04 05:13:25;;;;;;;27.30;12.53;;;-3.30;1.00;;;-1.39;100.00;95993.88;4970044;28;20721;-70
2023/03/04 05:15:53;;;;;;;29.33;13.23;;;-3.30;1.00;;;-1.42;100.00;95996.81;4966739;28;20681;-69
2023/03/04 05:18:21;;;;;;;24.73;12.10;;;-3.30;1.00;;;-1.42;100.00;95988.19;4969241;28;20702;-69
2023/03/04 05:20:52;;;;;;;25.03;12.73;;;-3.30;1.00;;;-0.88;100.00;95985.19;4968421;28;20224;-69
2023/03/04 05:23:19;;;;;;;26.87;12.13;;;-3.40;1.00;;;-1.14;100.00;95992.66;4969533;28;20323;-69
2023/03/04 05:25:46;;;;;;;24.13;11.77;;;-3.40;1.00;;;-1.17;100.00;95996.44;4965945;28;21063;-69
2023/03/04 05:28:14;;;;;;;24.73;11.93;;;-3.50;1.00;;;-1.06;100.00;95993.38;4969975;28;20634;-69
2023/03/04 05:30:42;;;;;;;25.83;12.43;;;-3.40;1.00;;;-0.91;100.00;95990.81;4967352;28;20213;-69
2023/03/04 05:33:10;;;;;;;27.37;12.07;;;-3.40;1.00;;;-0.84;100.00;96002.16;4964701;28;20204;-70
2023/03/04 05:35:38;;;;;;;27.80;12.63;;;-3.40;1.00;;;-0.82;100.00;96002.00;4963990;28;20651;-70
2023/03/04 05:38:10;;;;;;;26.87;11.63;;;-3.50;1.00;;;-0.73;100.00;96010.41;4965952;28;20268;-70
2023/03/04 05:40:37;;;;;;;25.33;12.77;;;-3.50;1.00;;;-0.98;100.00;96009.03;4967982;28;20212;-69
2023/03/04 05:43:04;;;;;;;33.30;15.17;;;-3.50;1.00;;;-1.09;100.00;96008.63;4962573;28;20247;-69
2023/03/04 05:45:31;;;;;;;32.70;13.80;;;-3.60;1.00;;;-0.82;100.00;96003.63;4966803;28;20279;-69
2023/03/04 05:48:06;;;;;;;37.50;16.17;;;-3.50;1.00;;;-0.71;100.00;96004.97;4967039;28;20212;-69
2023/03/04 05:50:33;;;;;;;31.97;14.87;;;-3.50;1.00;;;-0.68;100.00;96005.44;4965361;28;20220;-70
2023/03/04 05:53:00;;;;;;;32.53;15.43;;;-3.50;1.00;;;-0.60;100.00;96005.31;4967163;28;20299;-70
2023/03/04 05:55:28;;;;;;;29.63;13.23;;;-3.40;1.00;;;-0.61;100.00;96008.94;4967042;28;20267;-70
2023/03/04 05:57:56;;;;;;;29.00;14.30;;;-3.40;1.00;;;-0.63;100.00;96017.97;4970430;28;20264;-69
2023/03/04 06:00:23;;;;;;;27.60;12.83;;;-3.40;1.00;;;-0.66;100.00;96021.75;4965748;28;20229;-69
2023/03/04 06:02:50;;;;;;;30.67;13.67;;;-3.50;1.00;;;-0.67;100.00;96025.38;4968943;28;20267;-70
2023/03/04 06:05:17;;;;;;;28.40;12.93;;;-3.50;1.00;;;-0.70;100.00;96019.69;4967972;28;20232;-69
2023/03/04 06:07:44;;;;;;;24.37;12.37;;;-3.60;1.00;;;-0.81;100.00;96015.72;4968546;28;20259;-69
2023/03/04 06:10:15;;;;;;;23.83;10.60;;;-3.60;1.00;;;-0.77;100.00;96017.97;4966459;28;20220;-69
2023/03/04 06:12:43;;;;;;;23.07;11.23;;;-3.60;1.00;;;-0.62;100.00;96009.94;4966861;28;20224;-70
2023/03/04 06:15:13;;;;;;;26.17;11.70;;;-3.50;1.00;;;-0.50;100.00;96018.97;4965891;28;20275;-69
2023/03/04 06:17:41;;;;;;;26.23;12.27;;;-3.50;1.00;;;-0.44;100.00;96017.44;4968639;28;20647;-70
2023/03/04 06:20:12;;;;;;;25.53;11.27;;;-3.40;1.00;;;-0.47;100.00;96023.84;4967497;28;20248;-69
2023/03/04 06:22:39;;;;;;;24.90;11.00;;;-3.40;1.00;;;-0.35;100.00;96026.84;4968414;28;20216;-70
2023/03/04 06:25:07;;;;;;;30.73;14.50;;;-3.40;1.00;;;-0.32;100.00;96036.94;4964447;28;20235;-70
2023/03/04 06:27:35;;;;;;;26.33;11.80;;;-3.30;1.00;;;-0.38;100.00;96035.88;4967055;28;20212;-69
2023/03/04 06:30:04;;;;;;;27.47;12.33;;;-3.30;1.00;;;-0.27;100.00;96040.63;4964913;28;20209;-69
2023/03/04 06:32:31;;;;;;;24.03;12.60;;;-3.30;1.00;;;-0.23;100.00;96041.09;4968083;28;20236;-69
2023/03/04 06:34:58;;;;;;;22.40;11.33;;;-3.30;1.00;;;-0.22;100.00;96040.91;4964272;28;20271;-69
2023/03/04 06:37:24;;;;;;;23.07;11.93;;;-3.30;1.00;;;-0.14;100.00;96053.09;4964522;28;20263;-69
2023/03/04 06:39:57;;;;;;;22.83;10.60;;;-3.20;1.00;;;-0.16;100.00;96044.59;4965185;28;20236;-70
2023/03/04 06:42:24;;;;;;;25.60;12.23;;;-3.20;1.00;;;-0.22;100.00;96047.94;4961229;28;20288;-69
2023/03/04 06:44:51;;;;;;;27.00;13.67;;;-3.20;1.00;;;-0.16;100.00;96050.66;4964839;28;21056;-69
2023/03/04 06:47:19;;;;;;;26.50;12.73;;;-3.20;1.00;;;-0.11;100.00;96050.91;4964733;28;20267;-70
2023/03/04 06:49:46;;;;;;;43.10;18.87;;;-3.10;1.00;;;-0.19;100.00;96051.00;4964575;28;20259;-71
2023/03/04 06:52:12;;;;;;;44.73;20.10;;;-3.20;1.00;;;0.00;100.00;96044.41;4966482;28;20283;-70
2023/03/04 06:54:39;;;;;;;38.40;16.83;;;-3.10;1.00;;;0.09;100.00;96057.22;4965386;28;20352;-70
2023/03/04 06:57:07;;;;;;;33.37;17.20;;;-3.00;1.00;;;0.11;100.00;96051.78;4964996;28;20220;-70
2023/03/04 06:59:34;;;;;;;39.77;16.83;;;-3.00;1.00;;;0.18;100.00;96053.50;4966833;28;20717;-70
2023/03/04 07:02:01;;;;;;;35.40;17.73;;;-2.90;1.00;;;0.13;100.00;96055.03;4966075;28;20295;-70
2023/03/04 07:04:35;;;;;;;33.30;16.30;;;-2.90;1.00;;;0.21;100.00;96060.97;4961355;28;20219;-69
2023/03/04 07:07:01;;;;;;;32.30;16.60;;;-2.90;1.00;;;0.45;100.00;96065.06;4963015;28;20303;-70
2023/03/04 07:09:28;;;;;;;34.17;16.63;;;-2.80;1.00;;;0.43;100.00;96053.97;4962388;28;20243;-69
2023/03/04 07:11:55;;;;;;;41.07;18.93;;;-2.70;1.00;;;0.56;100.00;96068.03;4964155;28;20983;-69
2023/03/04 07:14:22;;;;;;;42.60;18.83;;;-2.60;1.00;;;0.74;100.00;96060.53;4964789;28;20255;-69
2023/03/04 07:16:49;;;;;;;40.73;18.10;;;-2.50;1.00;;;0.84;100.00;96068.09;4963132;28;20283;-69
2023/03/04 07:19:15;;;;;;;36.00;17.03;;;-2.40;1.00;;;0.93;100.00;96065.13;4966370;28;20208;-70
2023/03/04 07:21:43;;;;;;;40.50;19.50;;;-2.30;1.00;;;1.03;100.00;96070.88;4962422;28;20221;-70
2023/03/04 07:24:10;;;;;;;50.53;24.47;;;-2.20;1.00;;;1.01;100.00;96077.31;4965216;28;20227;-70
2023/03/04 07:26:37;;;;;;;44.80;21.63;;;-2.20;1.00;;;1.15;100.00;96073.81;4961525;28;20702;-70
2023/03/04 07:29:04;;;;;;;37.67;18.53;;;-2.10;1.00;;;1.26;100.00;96078.53;4969403;28;20216;-71
2023/03/04 07:31:34;;;;;;;38.10;17.27;;;-2.00;1.00;;;1.19;100.00;96077.69;4963965;28;20648;-70
2023/03/04 07:34:02;;;;;;;29.30;14.97;;;-2.00;1.00;;;1.28;100.00;96074.72;4965364;28;20216;-70
2023/03/04 07:36:29;;;;;;;28.67;13.87;;;-1.90;1.00;;;1.46;100.00;96079.50;4962465;28;20204;-70
2023/03/04 07:38:58;;;;;;;34.47;16.17;;;-1.80;1.00;;;1.64;100.00;96085.09;4963305;28;20212;-70
2023/03/04 07:41:27;;;;;;;29.57;15.50;;;-1.60;1.00;;;1.85;100.00;96085.00;4964426;28;20212;-70
2023/03/04 07:43:56;;;;;;;32.43;16.53;;;-1.50;1.00;;;2.01;100.00;96092.59;4964907;28;20216;-70
2023/03/04 07:46:23;;;;;;;32.77;16.80;;;-1.40;1.00;;;1.95;100.00;96088.94;4960667;28;20232;-68
2023/03/04 07:48:50;;;;;;;42.40;20.03;;;-1.30;1.00;;;2.13;100.00;96091.03;4961762;28;20223;-68
2023/03/04 07:51:19;;;;;;;34.00;16.40;;;-1.20;1.00;;;2.19;100.00;96092.88;4963556;28;20263;-68
2023/03/04 07:53:48;;;;;;;31.63;14.90;;;-1.10;1.00;;;2.24;100.00;96093.91;4965862;28;20717;-68
2023/03/04 07:56:22;;;;;;;27.90;14.50;;;-1.00;1.00;;;2.29;100.00;96091.50;4966835;28;20204;-69
2023/03/04 07:58:52;;;;;;;26.40;13.33;;;-1.00;1.00;;;2.12;100.00;96089.41;4967084;28;20212;-69
2023/03/04 08:01:22;;;;;;;23.97;12.63;;;-0.90;1.00;;;2.10;100.00;96083.53;4962472;28;20756;-70
2023/03/04 08:03:49;;;;;;;25.03;12.10;;;-0.90;1.00;;;1.94;100.00;96097.00;4965596;28;20213;-71
2023/03/04 08:06:18;;;;;;;26.73;13.30;;;-0.90;1.00;;;2.32;100.00;96090.28;4962209;28;20228;-69
2023/03/04 08:08:46;;;;;;;27.20;13.03;;;-0.80;1.00;;;2.25;100.00;96105.25;4966544;28;20302;-69
2023/03/04 08:11:16;;;;;;;26.93;14.13;;;-0.80;1.00;;;2.38;100.00;96103.47;4967153;28;20651;-69
2023/03/04 08:13:44;;;;;;;26.83;13.90;;;-0.80;1.00;;;2.17;100.00;96108.03;4968054;28;20682;-69
2023/03/04 08:16:14;;;;;;;33.30;15.33;;;-0.80;1.00;;;2.27;100.00;96105.84;4964235;28;20212;-69
2023/03/04 08:18:41;;;;;;;28.67;14.53;;;-0.80;1.00;;;2.29;100.00;96109.91;4965276;28;20857;-69
2023/03/04 08:21:10;;;;;;;27.93;13.67;;;-0.80;1.00;;;2.26;100.00;96112.13;4967295;28;20219;-69
2023/03/04 08:23:38;;;;;;;28.90;14.40;;;-0.70;1.00;;;2.40;100.00;96119.09;4968045;28;20220;-69
2023/03/04 08:26:11;;;;;;;31.47;14.43;;;-0.70;1.00;;;2.54;100.00;96105.75;4964091;28;20650;-69
2023/03/04 08:28:40;;;;;;;29.90;14.37;;;-0.70;1.00;;;2.31;100.00;96113.19;4965773;28;20223;-68
2023/03/04 08:31:07;;;;;;;29.90;14.67;;;-0.70;1.00;;;2.21;100.00;96114.53;4960369;28;20216;-69
2023/03/04 08:33:34;;;;;;;29.17;14.83;;;-0.70;1.00;;;2.28;100.00;96118.00;4965066;28;20275;-69
2023/03/04 08:36:01;;;;;;;32.90;15.30;;;-0.60;1.00;;;2.42;100.00;96112.63;4963500;28;20212;-69
2023/03/04 08:38:28;;;;;;;29.03;14.67;;;-0.60;1.00;;;2.31;100.00;96121.06;4962322;28;20260;-68
2023/03/04 08:40:56;;;;;;;27.23;14.40;;;-0.60;1.00;;;2.47;100.00;96120.72;4967053;28;20220;-69
2023/03/04 08:43:25;;;;;;;28.60;14.53;;;-0.60;1.00;;;2.37;100.00;96125.56;4968457;28;20588;-69
2023/03/04 08:45:54;;;;;;;31.77;15.93;;;-0.60;1.00;;;2.12;100.00;96134.94;4964359;28;20275;-69
2023/03/04 08:48:22;;;;;;;24.23;13.33;;;-0.70;1.00;;;2.29;100.00;96128.34;4965423;28;20641;-68
2023/03/04 08:50:50;;;;;;;30.17;14.70;;;-0.70;1.00;;;2.00;100.00;96139.13;4963110;28;20634;-68
2023/03/04 08:53:18;;;;;;;28.03;14.63;;;-0.70;1.00;;;1.99;100.00;96128.78;4964674;28;20217;-68
2023/03/04 08:55:45;;;;;;;28.77;14.90;;;-0.80;1.00;;;1.88;100.00;96129.34;4966803;28;20208;-69
2023/03/04 08:58:13;;;;;;;26.57;13.83;;;-0.90;1.00;;;1.98;100.00;96124.56;4962020;28;20212;-70
2023/03/04 09:00:47;;;;;;;30.40;15.27;;;-0.90;1.00;;;1.92;100.00;96133.19;4972418;28;20232;-70
2023/03/04 09:03:19;;;;;;;29.47;14.43;;;-0.90;1.00;;;2.09;100.00;96137.16;4963370;28;20212;-71
2023/03/04 09:05:46;;;;;;;26.47;14.73;;;-0.90;1.00;;;2.09;100.00;96130.06;4967175;28;20225;-69
2023/03/04 09:08:14;;;;;;;30.17;15.43;;;-0.90;1.00;;;2.42;100.00;96133.66;4969276;28;20675;-70
2023/03/04 09:10:41;;;;;;;35.10;16.70;;;-0.80;1.00;;;1.98;100.00;96138.50;4972555;28;20255;-70
2023/03/04 09:13:10;;;;;;;30.43;15.73;;;-0.70;1.00;;;2.13;100.00;96136.56;4970166;28;20375;-69
2023/03/04 09:15:38;;;;;;;36.60;16.40;;;-0.70;1.00;;;2.23;100.00;96137.00;4970061;28;20213;-69
2023/03/04 09:18:05;;;;;;;31.17;15.53;;;-0.70;1.00;;;2.37;100.00;96138.72;4965432;28;20595;-70
2023/03/04 09:20:34;;;;;;;31.10;16.37;;;-0.60;1.00;;;2.44;100.00;96136.13;4966834;28;20292;-69
2023/03/04 09:23:01;;;;;;;31.60;16.47;;;-0.50;1.00;;;2.26;100.00;96134.00;4969400;28;20263;-70
2023/03/04 09:25:28;;;;;;;33.17;16.20;;;-0.50;1.00;;;2.31;100.00;96139.50;4967633;28;20269;-69
2023/03/04 09:27:55;;;;;;;34.63;17.83;;;-0.60;1.00;;;2.75;100.00;96134.59;4966429;28;20217;-68
2023/03/04 09:30:22;;;;;;;33.53;16.20;;;-0.50;1.00;;;2.45;100.00;96143.78;4969377;28;20212;-68
2023/03/04 09:32:49;;;;;;;32.77;17.07;;;-0.40;1.00;;;2.62;100.00;96137.19;4965281;28;20585;-68
2023/03/04 09:35:16;;;;;;;38.67;16.90;;;-0.40;1.00;;;2.77;100.00;96127.31;4966628;28;20295;-67
2023/03/04 09:37:45;;;;;;;36.80;17.90;;;-0.30;1.00;;;2.73;100.00;96128.72;4966641;28;20216;-68
2023/03/04 09:40:17;;;;;;;33.73;17.77;;;-0.20;1.00;;;2.95;100.00;96132.81;4967543;28;20267;-69
2023/03/04 09:42:49;;;;;;;30.73;16.63;;;-0.10;1.00;;;3.05;100.00;96129.81;4964077;28;20283;-68
2023/03/04 09:45:20;;;;;;;27.73;15.40;;;-0.10;1.00;;;2.81;100.00;96135.63;4969231;28;20565;-68
2023/03/04 09:47:50;;;;;;;30.20;14.97;;;0.00;1.00;;;2.97;100.00;96132.63;4968275;28;20212;-69
2023/03/04 09:50:19;;;;;;;29.30;15.93;;;0.00;1.00;;;3.39;100.00;96124.34;4967220;28;20749;-68
2023/03/04 09:53:06;;;;;;;30.53;16.53;;;0.20;1.00;;;3.42;100.00;96130.06;4965281;28;20208;-68
2023/03/04 09:55:37;;;;;;;31.03;16.77;;;0.30;1.00;;;3.46;100.00;96133.91;4967945;28;20211;-68
2023/03/04 09:58:16;;;;;;;33.93;18.60;;;0.40;1.00;;;3.22;100.00;96131.88;4967189;28;20231;-69
2023/03/04 10:00:47;;;;;;;34.80;17.80;;;0.30;1.00;;;2.97;100.00;96130.81;4968351;28;20702;-69
2023/03/04 10:03:18;;;;;;;34.00;16.97;;;0.20;1.00;;;2.79;100.00;96129.75;4970186;28;20217;-67
2023/03/04 10:05:54;;;;;;;34.00;19.17;;;0.10;1.00;;;2.64;100.00;96129.91;4965791;28;20259;-69
2023/03/04 10:08:40;;;;;;;35.30;18.23;;;0.10;1.00;;;2.74;100.00;96126.91;4963261;28;20298;-68
2023/03/04 10:11:14;;;;;;;34.13;17.53;;;0.10;1.00;;;3.24;100.00;96129.84;4967177;28;20208;-69
2023/03/04 10:13:53;;;;;;;38.47;19.17;;;0.20;1.00;;;3.25;100.00;96131.44;4966389;28;20216;-69
2023/03/04 10:16:26;;;;;;;38.17;20.17;;;0.20;1.00;;;3.48;100.00;96125.78;4964085;28;20821;-69